createdAt,value
2018-02-16T00:01:20.726Z,16.90
2018-02-16T00:03:49.615Z,10.07
2018-02-16T00:06:19.007Z,21.70
2018-02-16T00:08:48.175Z,19.33
2018-02-16T00:11:17.145Z,21.93
2018-02-16T00:13:46.001Z,18.03
2018-02-16T00:16:15.187Z,16.63
2018-02-16T00:18:44.377Z,21.33
2018-02-16T00:21:13.211Z,20.00
2018-02-16T00:23:42.729Z,20.23
2018-02-16T00:26:11.639Z,17.80
2018-02-16T00:28:40.988Z,20.97
2018-02-16T00:31:09.851Z,22.47
2018-02-16T00:33:38.947Z,17.83
2018-02-16T00:36:08.119Z,18.57
2018-02-16T00:38:36.988Z,18.73
2018-02-16T00:41:05.899Z,19.27
2018-02-16T00:43:34.745Z,26.17
2018-02-16T00:46:03.971Z,19.63
2018-02-16T00:48:33.988Z,18.27
2018-02-16T00:51:03.135Z,24.90
2018-02-16T00:53:33.131Z,23.63
2018-02-16T00:56:01.995Z,24.17
2018-02-16T00:58:31.643Z,24.87
2018-02-16T01:01:00.738Z,24.53
2018-02-16T01:03:29.593Z,17.33
2018-02-16T01:05:58.682Z,17.40
2018-02-16T01:08:27.875Z,22.27
2018-02-16T01:10:56.969Z,19.07
2018-02-16T01:13:25.883Z,21.70
2018-02-16T01:15:54.749Z,18.90
2018-02-16T01:18:23.582Z,20.13
2018-02-16T01:20:52.506Z,21.57
2018-02-16T01:23:23.219Z,26.20
2018-02-16T01:25:52.089Z,18.57
2018-02-16T01:28:21.228Z,18.77
2018-02-16T01:30:50.321Z,18.03
2018-02-16T01:33:19.470Z,21.57
2018-02-16T01:35:48.565Z,16.30
2018-02-16T01:38:17.647Z,18.23
2018-02-16T01:40:46.500Z,18.07
2018-02-16T01:43:15.607Z,18.53
2018-02-16T01:45:44.717Z,20.23
2018-02-16T01:48:13.642Z,18.80
2018-02-16T01:50:42.736Z,19.27
2018-02-16T01:53:12.968Z,20.87
2018-02-16T01:55:41.832Z,28.47
2018-02-16T01:58:10.659Z,22.57
2018-02-16T02:00:40.290Z,24.63
2018-02-16T02:03:09.421Z,12.97
2018-02-16T02:05:38.614Z,20.27
2018-02-16T02:08:07.772Z,17.37
2018-02-16T02:10:36.678Z,27.00
2018-02-16T02:13:05.539Z,20.10
2018-02-16T02:15:34.488Z,21.97
2018-02-16T02:18:03.403Z,21.40
2018-02-16T02:20:32.515Z,23.00
2018-02-16T02:23:01.361Z,24.93
2018-02-16T02:25:30.498Z,18.73
2018-02-16T02:28:00.092Z,20.00
2018-02-16T02:30:30.398Z,19.13
2018-02-16T02:33:00.172Z,22.17
2018-02-16T02:35:29.034Z,24.27
2018-02-16T02:37:57.947Z,24.10
2018-02-16T02:40:26.788Z,21.77
2018-02-16T02:42:55.670Z,23.57
2018-02-16T02:45:24.550Z,22.07
2018-02-16T02:47:54.320Z,24.97
2018-02-16T02:50:23.152Z,22.50
2018-02-16T02:52:52.754Z,31.17
2018-02-16T02:55:21.622Z,26.00
2018-02-16T02:57:50.705Z,24.40
2018-02-16T03:00:20.114Z,31.37
2018-02-16T03:02:48.996Z,26.03
2018-02-16T03:05:17.878Z,30.97
2018-02-16T03:07:46.729Z,27.03
2018-02-16T03:10:15.610Z,20.40
2018-02-16T03:12:44.468Z,24.70
2018-02-16T03:15:13.302Z,24.33
2018-02-16T03:17:43.016Z,27.37
2018-02-16T03:20:12.765Z,33.77
2018-02-16T03:22:41.604Z,25.07
2018-02-16T03:25:11.152Z,19.83
2018-02-16T03:27:40.300Z,21.87
2018-02-16T03:30:09.143Z,20.57
2018-02-16T03:32:38.288Z,22.87
2018-02-16T03:35:07.180Z,25.90
2018-02-16T03:37:36.034Z,30.40
2018-02-16T03:40:05.877Z,20.87
2018-02-16T03:42:34.748Z,26.57
2018-02-16T03:45:03.958Z,25.63
2018-02-16T03:47:33.506Z,20.97
2018-02-16T03:50:02.714Z,21.27
2018-02-16T03:52:32.140Z,22.30
2018-02-16T03:55:01.268Z,23.97
2018-02-16T03:57:30.135Z,26.13
2018-02-16T03:59:59.037Z,24.43
2018-02-16T04:02:28.244Z,29.47
2018-02-16T04:05:00.546Z,28.63
2018-02-16T04:07:29.374Z,22.20
2018-02-16T04:09:58.256Z,20.97
2018-02-16T04:12:27.088Z,14.73
2018-02-16T04:14:55.972Z,21.37
2018-02-16T04:17:24.838Z,23.77
2018-02-16T04:19:53.988Z,25.13
2018-02-16T04:22:22.854Z,25.93
2018-02-16T04:24:51.712Z,25.07
2018-02-16T04:27:20.560Z,23.83
2018-02-16T04:29:50.101Z,21.60
2018-02-16T04:32:19.930Z,24.13
2018-02-16T04:34:48.784Z,24.10
2018-02-16T04:37:17.674Z,17.90
2018-02-16T04:39:46.542Z,28.87
2018-02-16T04:42:15.728Z,23.73
2018-02-16T04:44:44.600Z,29.70
2018-02-16T04:47:13.464Z,28.57
2018-02-16T04:49:42.311Z,28.80
2018-02-16T04:52:11.166Z,23.87
2018-02-16T04:54:40.032Z,23.27
2018-02-16T04:57:08.896Z,27.90
2018-02-16T04:59:38.043Z,23.93
2018-02-16T05:02:06.970Z,23.90
2018-02-16T05:04:35.810Z,21.33
2018-02-16T05:07:05.498Z,28.00
2018-02-16T05:09:34.418Z,18.17
2018-02-16T05:12:03.285Z,22.20
2018-02-16T05:14:32.114Z,19.37
2018-02-16T05:17:00.996Z,21.87
2018-02-16T05:19:29.822Z,21.57
2018-02-16T05:21:59.594Z,15.60
2018-02-16T05:24:28.461Z,22.73
2018-02-16T05:26:57.306Z,24.07
2018-02-16T05:29:26.149Z,27.73
2018-02-16T05:31:55.047Z,18.93
2018-02-16T05:34:23.906Z,19.83
2018-02-16T05:36:53.604Z,24.03
2018-02-16T05:39:22.480Z,23.27
2018-02-16T05:41:52.312Z,21.93
2018-02-16T05:44:21.140Z,25.00
2018-02-16T05:46:49.996Z,25.07
2018-02-16T05:49:21.112Z,19.80
2018-02-16T05:51:49.974Z,19.90
2018-02-16T05:54:19.669Z,20.13
2018-02-16T05:56:48.506Z,20.17
2018-02-16T05:59:17.380Z,22.00
2018-02-16T06:01:46.259Z,16.77
2018-02-16T06:04:15.110Z,25.50
2018-02-16T06:06:43.948Z,17.07
2018-02-16T06:09:13.766Z,27.43
2018-02-16T06:11:42.654Z,17.07
2018-02-16T06:14:11.491Z,23.23
2018-02-16T06:16:40.597Z,17.97
2018-02-16T06:19:09.572Z,20.30
2018-02-16T06:21:38.408Z,25.70
2018-02-16T06:24:07.256Z,19.30
2018-02-16T06:26:36.112Z,17.13
2018-02-16T06:29:04.948Z,19.90
2018-02-16T06:31:33.772Z,19.77
2018-02-16T06:34:02.655Z,18.97
2018-02-16T06:36:31.490Z,21.43
2018-02-16T06:39:00.999Z,22.23
2018-02-16T06:41:29.882Z,20.23
2018-02-16T06:43:58.770Z,21.77
2018-02-16T06:46:27.637Z,20.70
2018-02-16T06:48:56.470Z,21.80
2018-02-16T06:51:25.300Z,18.57
2018-02-16T06:53:54.166Z,17.27
2018-02-16T06:56:22.998Z,23.87
2018-02-16T06:58:52.501Z,17.53
2018-02-16T07:01:21.406Z,13.17
2018-02-16T07:03:50.261Z,27.03
2018-02-16T07:06:30.033Z,20.37
2018-02-16T07:09:01.689Z,21.60
2018-02-16T07:11:31.140Z,16.17
2018-02-16T07:16:42.822Z,19.63
2018-02-16T07:19:12.730Z,17.93
2018-02-16T07:21:41.603Z,15.77
2018-02-16T07:24:10.457Z,22.83
2018-02-16T07:26:39.342Z,14.93
2018-02-16T07:29:12.747Z,15.60
2018-02-16T07:31:41.697Z,24.13
2018-02-16T07:34:11.173Z,28.60
2018-02-16T07:36:40.008Z,20.90
2018-02-16T07:39:10.639Z,21.20
2018-02-16T07:41:40.021Z,20.70
2018-02-16T07:44:09.799Z,19.67
2018-02-16T07:46:38.657Z,28.00
2018-02-16T07:49:07.481Z,20.07
2018-02-16T07:51:36.343Z,25.00
2018-02-16T07:54:05.199Z,20.23
2018-02-16T07:56:34.091Z,21.27
2018-02-16T07:59:03.045Z,17.50
2018-02-16T08:01:31.911Z,21.70
2018-02-16T08:06:36.699Z,20.60
2018-02-16T08:09:08.819Z,22.07
2018-02-16T08:14:19.427Z,12.83
2018-02-16T08:16:48.307Z,20.37
2018-02-16T08:19:17.149Z,23.97
2018-02-16T08:21:48.871Z,19.80
2018-02-16T08:24:19.271Z,19.07
2018-02-16T08:26:48.115Z,19.60
2018-02-16T08:32:00.951Z,13.83
2018-02-16T08:34:59.355Z,17.93
2018-02-16T08:37:30.287Z,19.13
2018-02-16T08:39:59.161Z,15.93
2018-02-16T08:42:28.019Z,21.00
2018-02-16T08:44:56.855Z,20.83
2018-02-16T08:47:25.755Z,14.03
2018-02-16T08:49:55.335Z,19.03
2018-02-16T08:52:25.119Z,17.27
2018-02-16T08:54:54.215Z,17.83
2018-02-16T08:57:23.081Z,16.60
2018-02-16T08:59:51.967Z,15.27
2018-02-16T09:02:20.840Z,17.10
2018-02-16T09:04:49.711Z,15.23
2018-02-16T09:07:19.164Z,16.47
2018-02-16T09:09:48.015Z,13.60
2018-02-16T09:12:16.841Z,16.27
2018-02-16T09:14:45.744Z,21.43
2018-02-16T09:17:14.573Z,13.47
2018-02-16T09:19:43.403Z,18.97
2018-02-16T09:22:13.193Z,18.70
2018-02-16T09:24:42.034Z,13.50
2018-02-16T09:27:11.455Z,18.83
2018-02-16T09:29:40.363Z,17.03
2018-02-16T09:32:09.199Z,16.53
2018-02-16T09:34:43.849Z,13.23
2018-02-16T09:37:13.182Z,19.33
2018-02-16T09:39:42.555Z,20.47
2018-02-16T09:42:11.477Z,19.00
2018-02-16T09:44:40.340Z,15.13
2018-02-16T09:47:09.309Z,14.53
2018-02-16T09:49:38.891Z,12.07
2018-02-16T09:52:07.759Z,13.67
2018-02-16T09:54:37.427Z,16.03
2018-02-16T09:57:06.258Z,11.50
2018-02-16T09:59:36.045Z,10.43
2018-02-16T10:02:04.915Z,12.70
2018-02-16T10:04:33.764Z,17.63
2018-02-16T10:07:02.595Z,9.80
2018-02-16T10:09:32.167Z,11.80
2018-02-16T10:12:01.021Z,12.20
2018-02-16T10:14:29.863Z,14.57
2018-02-16T10:16:59.076Z,12.33
2018-02-16T10:19:28.809Z,14.93
2018-02-16T10:21:57.639Z,10.83
2018-02-16T10:24:26.510Z,14.77
2018-02-16T10:26:55.362Z,19.67
2018-02-16T10:29:24.203Z,28.43
2018-02-16T10:31:53.079Z,13.07
2018-02-16T10:34:22.012Z,23.33
2018-02-16T10:36:50.901Z,14.30
2018-02-16T10:39:19.788Z,16.80
2018-02-16T10:41:48.648Z,16.57
2018-02-16T10:44:17.525Z,14.27
2018-02-16T10:46:46.407Z,16.27
2018-02-16T10:49:15.251Z,11.57
2018-02-16T10:51:44.108Z,14.17
2018-02-16T10:54:13.625Z,11.47
2018-02-16T10:56:42.469Z,10.87
2018-02-16T10:59:12.216Z,13.03
2018-02-16T11:01:44.269Z,13.37
2018-02-16T11:04:30.824Z,14.97
2018-02-16T11:07:05.607Z,11.77
2018-02-16T11:09:34.451Z,12.50
2018-02-16T11:12:03.308Z,11.57
2018-02-16T11:14:32.153Z,14.50
2018-02-16T11:17:00.992Z,10.97
2018-02-16T11:19:31.409Z,9.87
2018-02-16T11:22:00.252Z,9.40
2018-02-16T11:24:29.095Z,10.97
2018-02-16T11:26:57.923Z,15.00
2018-02-16T11:29:27.292Z,14.50
2018-02-16T11:31:56.118Z,9.80
2018-02-16T11:34:24.962Z,8.23
2018-02-16T11:36:53.827Z,11.13
2018-02-16T11:39:22.658Z,13.43
2018-02-16T11:41:52.265Z,8.90
2018-02-16T11:44:21.116Z,10.00
2018-02-16T11:46:49.943Z,10.63
2018-02-16T11:49:19.094Z,9.20
2018-02-16T11:51:47.930Z,9.17
2018-02-16T11:54:16.792Z,8.20
2018-02-16T11:56:45.740Z,9.77
2018-02-16T11:59:14.575Z,9.63
2018-02-16T12:01:43.425Z,10.83
2018-02-16T12:04:12.290Z,11.47
2018-02-16T12:06:41.121Z,9.53
2018-02-16T12:09:09.952Z,7.77
2018-02-16T12:11:39.624Z,10.33
2018-02-16T12:14:08.464Z,11.60
2018-02-16T12:16:37.313Z,8.47
2018-02-16T12:19:06.169Z,7.90
2018-02-16T12:21:35.343Z,11.70
2018-02-16T12:24:04.284Z,8.70
2018-02-16T12:26:33.132Z,8.40
2018-02-16T12:29:01.967Z,8.40
2018-02-16T12:31:31.097Z,8.57
2018-02-16T12:33:59.955Z,10.07
2018-02-16T12:36:28.806Z,9.60
2018-02-16T12:38:57.696Z,10.07
2018-02-16T12:41:26.559Z,11.20
2018-02-16T12:43:55.907Z,9.13
2018-02-16T12:46:24.798Z,10.63
2018-02-16T12:48:53.642Z,9.60
2018-02-16T12:51:22.484Z,9.73
2018-02-16T12:53:52.424Z,10.00
2018-02-16T12:56:21.354Z,7.73
2018-02-16T12:58:50.181Z,6.13
2018-02-16T13:01:19.076Z,8.83
2018-02-16T13:03:47.993Z,7.97
2018-02-16T13:06:17.303Z,7.93
2018-02-16T13:08:46.181Z,9.90
2018-02-16T13:11:15.010Z,7.37
2018-02-16T13:13:43.883Z,9.57
2018-02-16T13:16:12.738Z,9.40
2018-02-16T13:18:41.581Z,7.70
2018-02-16T13:21:10.436Z,8.30
2018-02-16T13:23:39.484Z,7.40
2018-02-16T13:26:08.339Z,6.17
2018-02-16T13:28:37.171Z,7.53
2018-02-16T13:31:06.008Z,6.07
2018-02-16T13:33:34.857Z,7.40
2018-02-16T13:36:03.748Z,5.50
2018-02-16T13:38:33.228Z,7.80
2018-02-16T13:41:02.082Z,6.30
2018-02-16T13:43:31.696Z,7.17
2018-02-16T13:46:00.573Z,8.67
2018-02-16T13:48:29.434Z,9.30
2018-02-16T13:50:58.268Z,8.23
2018-02-16T13:53:27.130Z,6.53
2018-02-16T13:55:55.954Z,6.60
2018-02-16T13:58:24.801Z,5.40
2018-02-16T14:00:53.657Z,6.93
2018-02-16T14:03:22.500Z,8.90
2018-02-16T14:05:51.941Z,8.50
2018-02-16T14:08:20.820Z,9.03
2018-02-16T14:10:49.702Z,7.47
2018-02-16T14:13:19.178Z,7.90
2018-02-16T14:15:48.030Z,7.47
2018-02-16T14:18:16.892Z,6.10
2018-02-16T14:20:45.738Z,8.43
2018-02-16T14:23:14.595Z,7.27
2018-02-16T14:25:43.451Z,8.20
2018-02-16T14:28:12.894Z,6.43
2018-02-16T14:30:41.748Z,6.20
2018-02-16T14:33:10.692Z,7.80
2018-02-16T14:35:40.810Z,8.47
2018-02-16T14:38:09.665Z,8.00
2018-02-16T14:40:38.518Z,5.80
2018-02-16T14:43:07.364Z,6.53
2018-02-16T14:45:36.222Z,5.07
2018-02-16T14:48:05.061Z,6.43
2018-02-16T14:50:34.251Z,9.27
2018-02-16T14:53:03.152Z,6.23
2018-02-16T14:55:31.986Z,5.57
2018-02-16T14:58:00.838Z,9.80
2018-02-16T15:00:29.687Z,9.03
2018-02-16T15:02:58.602Z,8.70
2018-02-16T15:05:27.466Z,11.30
2018-02-16T15:07:56.336Z,6.73
2018-02-16T15:10:25.259Z,6.63
2018-02-16T15:12:54.147Z,6.10
2018-02-16T15:15:23.002Z,8.67
2018-02-16T15:17:51.850Z,9.47
2018-02-16T15:20:20.988Z,5.07
2018-02-16T15:22:49.835Z,7.60
2018-02-16T15:25:18.679Z,7.50
2018-02-16T15:27:47.530Z,11.73
2018-02-16T15:30:16.603Z,5.30
2018-02-16T15:32:45.446Z,6.87
2018-02-16T15:35:15.175Z,5.20
2018-02-16T15:37:44.030Z,5.20
2018-02-16T15:40:12.872Z,5.40
2018-02-16T15:42:41.709Z,4.70
2018-02-16T15:45:10.586Z,5.67
2018-02-16T15:47:40.096Z,6.60
2018-02-16T15:50:08.940Z,6.50
2018-02-16T15:52:37.807Z,5.30
2018-02-16T15:55:06.641Z,5.90
2018-02-16T15:57:35.499Z,5.03
2018-02-16T16:00:04.356Z,5.00
2018-02-16T16:02:33.218Z,4.37
2018-02-16T16:05:02.074Z,4.93
2018-02-16T16:07:31.621Z,6.90
2018-02-16T16:10:00.516Z,4.90
2018-02-16T16:12:29.354Z,5.17
2018-02-16T16:14:58.202Z,5.27
2018-02-16T16:17:27.067Z,8.80
2018-02-16T16:19:55.905Z,5.20
2018-02-16T16:22:25.728Z,7.80
2018-02-16T16:24:54.569Z,8.47
2018-02-16T16:27:24.249Z,5.00
2018-02-16T16:29:53.183Z,6.47
2018-02-16T16:32:22.044Z,4.37
2018-02-16T16:34:50.919Z,7.70
2018-02-16T16:37:19.995Z,6.50
2018-02-16T16:39:48.863Z,6.77
2018-02-16T16:42:18.599Z,8.20
2018-02-16T16:44:47.431Z,7.80
2018-02-16T16:47:16.975Z,9.20
2018-02-16T16:49:45.874Z,6.30
2018-02-16T16:52:14.708Z,7.00
2018-02-16T16:54:43.575Z,4.77
2018-02-16T16:57:12.424Z,4.33
2018-02-16T16:59:42.068Z,4.40
2018-02-16T17:02:10.905Z,3.83
2018-02-16T17:04:40.430Z,4.73
2018-02-16T17:07:09.298Z,2.83
2018-02-16T17:09:38.187Z,5.33
2018-02-16T17:12:09.334Z,5.73
2018-02-16T17:14:38.192Z,5.17
2018-02-16T17:17:07.109Z,5.07
2018-02-16T17:19:35.999Z,9.50
2018-02-16T17:22:04.873Z,7.77
2018-02-16T17:24:34.309Z,5.57
2018-02-16T17:27:03.179Z,4.70
2018-02-16T17:29:32.012Z,4.93
2018-02-16T17:32:00.910Z,3.97
2018-02-16T17:34:29.757Z,5.67
2018-02-16T17:36:59.185Z,4.33
2018-02-16T17:39:28.047Z,4.10
2018-02-16T17:41:56.907Z,8.87
2018-02-16T17:44:25.741Z,5.33
2018-02-16T17:46:54.583Z,6.77
2018-02-16T17:49:23.411Z,6.73
2018-02-16T17:51:52.525Z,7.43
2018-02-16T17:54:22.239Z,8.30
2018-02-16T17:56:51.063Z,8.47
2018-02-16T17:59:20.601Z,6.37
2018-02-16T18:01:49.431Z,8.20
2018-02-16T18:04:19.132Z,5.70
2018-02-16T18:06:47.983Z,5.53
2018-02-16T18:09:16.959Z,6.83
2018-02-16T18:11:45.790Z,6.07
2018-02-16T18:14:14.639Z,7.23
2018-02-16T18:16:43.486Z,9.13
2018-02-16T18:19:12.311Z,10.57
2018-02-16T18:21:41.161Z,7.17
2018-02-16T18:24:10.745Z,6.30
2018-02-16T18:26:40.547Z,6.83
2018-02-16T18:29:09.409Z,6.80
2018-02-16T18:31:38.265Z,7.90
2018-02-16T18:34:07.095Z,9.90
2018-02-16T18:36:35.950Z,11.97
2018-02-16T18:39:04.783Z,9.70
2018-02-16T18:41:34.444Z,11.07
2018-02-16T18:44:03.339Z,10.47
2018-02-16T18:46:32.186Z,11.57
2018-02-16T18:49:01.029Z,11.13
2018-02-16T18:51:29.947Z,16.10
2018-02-16T18:53:58.881Z,16.97
2018-02-16T18:56:28.247Z,17.97
2018-02-16T18:58:57.115Z,14.20
2018-02-16T19:01:25.959Z,12.73
2018-02-16T19:03:55.454Z,10.40
2018-02-16T19:06:24.309Z,8.90
2018-02-16T19:08:53.135Z,13.60
2018-02-16T19:11:21.957Z,12.63
2018-02-16T19:13:50.845Z,14.73
2018-02-16T19:16:19.897Z,14.80
2018-02-16T19:18:48.733Z,17.47
2018-02-16T19:21:17.633Z,43.17
2018-02-16T19:23:46.467Z,57.13
2018-02-16T19:26:15.315Z,42.37
2018-02-16T19:28:44.203Z,26.47
2018-02-16T19:31:13.113Z,21.93
2018-02-16T19:33:41.956Z,23.13
2018-02-16T19:36:11.763Z,28.83
2018-02-16T19:38:40.651Z,20.23
2018-02-16T19:41:09.805Z,27.47
2018-02-16T19:43:39.324Z,23.93
2018-02-16T19:46:08.477Z,26.73
2018-02-16T19:48:37.643Z,25.73
2018-02-16T19:51:06.849Z,14.40
2018-02-16T19:53:36.047Z,16.23
2018-02-16T19:56:04.941Z,17.87
2018-02-16T19:58:34.077Z,20.03
2018-02-16T20:01:03.251Z,23.73
2018-02-16T20:03:32.363Z,25.33
2018-02-16T20:06:01.522Z,19.43
2018-02-16T20:08:31.383Z,29.13
2018-02-16T20:11:00.540Z,55.43
2018-02-16T20:13:30.669Z,46.47
2018-02-16T20:16:02.683Z,26.07
2018-02-16T20:18:32.695Z,29.23
2018-02-16T20:21:01.578Z,19.50
2018-02-16T20:23:31.007Z,19.20
2018-02-16T20:26:00.123Z,19.40
2018-02-16T20:28:29.031Z,16.60
2018-02-16T20:30:57.952Z,18.73
2018-02-16T20:33:26.803Z,22.03
2018-02-16T20:35:55.914Z,15.93
2018-02-16T20:38:24.801Z,16.10
2018-02-16T20:40:53.901Z,17.90
2018-02-16T20:43:22.784Z,16.67
2018-02-16T20:45:52.179Z,14.07
2018-02-16T20:48:21.138Z,15.73
2018-02-16T20:50:50.018Z,18.60
2018-02-16T20:53:19.639Z,25.43
2018-02-16T20:55:48.504Z,19.90
2018-02-16T20:58:17.696Z,25.07
2018-02-16T21:00:46.534Z,14.00
2018-02-16T21:03:15.380Z,25.33
2018-02-16T21:05:44.215Z,18.30
2018-02-16T21:08:13.052Z,18.00
2018-02-16T21:10:41.972Z,13.53
2018-02-16T21:13:11.610Z,12.10
2018-02-16T21:15:40.458Z,13.90
2018-02-16T21:18:09.325Z,10.57
2018-02-16T21:20:38.397Z,9.50
2018-02-16T21:23:07.242Z,13.87
2018-02-16T21:25:36.108Z,10.20
2018-02-16T21:28:04.946Z,11.00
2018-02-16T21:30:34.636Z,12.23
2018-02-16T21:33:03.506Z,11.33
2018-02-16T21:35:32.888Z,14.30
2018-02-16T21:38:01.752Z,10.50
2018-02-16T21:40:30.646Z,11.97
2018-02-16T21:43:00.338Z,9.47
2018-02-16T21:45:29.170Z,9.57
2018-02-16T21:47:58.774Z,13.73
2018-02-16T21:50:27.692Z,9.60
2018-02-16T21:52:56.518Z,11.10
2018-02-16T21:55:25.387Z,9.90
2018-02-16T21:57:54.542Z,11.37
2018-02-16T22:00:23.392Z,12.93
2018-02-16T22:02:52.272Z,11.37
2018-02-16T22:05:22.062Z,11.33
2018-02-16T22:07:50.912Z,16.20
2018-02-16T22:10:19.766Z,13.37
2018-02-16T22:12:48.620Z,14.23
2018-02-16T22:15:18.334Z,21.97
2018-02-16T22:17:47.187Z,16.67
2018-02-16T22:20:16.025Z,11.87
2018-02-16T22:22:44.890Z,11.40
2018-02-16T22:25:13.799Z,12.47
2018-02-16T22:27:42.652Z,17.13
2018-02-16T22:30:11.670Z,17.00
2018-02-16T22:32:40.612Z,20.07
2018-02-16T22:35:09.672Z,16.33
2018-02-16T22:37:39.104Z,13.30
2018-02-16T22:40:07.954Z,15.60
2018-02-16T22:42:36.784Z,18.00
2018-02-16T22:45:05.670Z,16.37
2018-02-16T22:47:34.513Z,13.80
2018-02-16T22:50:04.572Z,12.03
2018-02-16T22:52:34.800Z,11.97
2018-02-16T22:55:04.254Z,13.60
2018-02-16T22:57:33.108Z,14.50
2018-02-16T23:00:01.960Z,16.87
2018-02-16T23:02:31.709Z,12.03
2018-02-16T23:05:00.613Z,10.13
2018-02-16T23:07:29.468Z,11.20
2018-02-16T23:09:58.327Z,17.17
2018-02-16T23:12:27.156Z,14.10
2018-02-16T23:14:56.041Z,12.67
2018-02-16T23:17:24.978Z,12.47
2018-02-16T23:19:53.810Z,13.73
2018-02-16T23:22:22.668Z,12.87
2018-02-16T23:24:52.166Z,17.47
2018-02-16T23:27:20.990Z,17.57
2018-02-16T23:29:49.870Z,17.23
2018-02-16T23:32:19.718Z,10.80
2018-02-16T23:34:48.546Z,16.33
2018-02-16T23:37:17.414Z,13.80
2018-02-16T23:39:46.354Z,16.20
2018-02-16T23:44:44.845Z,17.87
2018-02-16T23:47:13.673Z,19.47
2018-02-16T23:49:42.518Z,15.60
2018-02-16T23:52:12.249Z,18.97
2018-02-16T23:54:41.095Z,12.07
2018-02-16T23:57:09.928Z,14.00
2018-02-16T23:59:39.006Z,13.90
